Time;durP1;ratioP1;P1;durP2;ratioP2;P2;SDS_P1;SDS_P2;PMS_P1;PMS_P2;Temp;Humidity;BMP_temperature;BMP_pressure;BME280_temperature;BME280_humidity;BME280_pressure;Samples;Min_cycle;Max_cycle;Signal;HPM_P1;HPM_P2
2023/06/18 00:00:40;;;;;;;32.33;25.83;;;15.30;99.90;;;;;;5034609;28;20061;-66
2023/06/18 00:03:11;;;;;;;31.40;24.63;;;15.20;99.90;;;;;;5032566;28;20044;-66
2023/06/18 00:05:37;;;;;;;34.20;27.60;;;15.20;99.90;;;;;;5033071;28;20041;-66
2023/06/18 00:08:04;;;;;;;32.90;25.73;;;15.30;99.90;;;;;;5034365;28;20116;-66
2023/06/18 00:10:30;;;;;;;31.48;25.05;;;15.30;99.90;;;;;;5032307;28;20041;-66
2023/06/18 00:12:56;;;;;;;36.65;27.58;;;15.30;99.90;;;;;;5032799;28;20056;-66
2023/06/18 00:15:21;;;;;;;35.10;28.30;;;15.30;99.90;;;;;;5032971;28;20041;-66
2023/06/18 00:17:47;;;;;;;33.97;25.98;;;15.20;99.90;;;;;;5033204;28;20079;-66
2023/06/18 00:20:22;;;;;;;32.78;25.25;;;15.20;99.90;;;;;;5032969;28;20186;-66
2023/06/18 00:22:48;;;;;;;35.28;26.88;;;15.20;99.90;;;;;;5032705;28;20049;-66
2023/06/18 00:25:14;;;;;;;35.90;27.83;;;15.20;99.90;;;;;;5032051;28;20046;-66
2023/06/18 00:27:40;;;;;;;34.47;27.05;;;15.20;99.90;;;;;;5016107;28;20053;-66
2023/06/18 00:30:07;;;;;;;39.50;29.48;;;15.20;99.90;;;;;;5034136;28;20107;-67
2023/06/18 00:32:32;;;;;;;40.60;29.95;;;15.20;99.90;;;;;;5032924;28;20733;-66
2023/06/18 00:35:00;;;;;;;36.67;27.40;;;15.10;99.90;;;;;;5032390;28;20037;-66
2023/06/18 00:37:27;;;;;;;37.30;28.10;;;15.10;99.90;;;;;;5032434;28;20120;-66
2023/06/18 00:39:54;;;;;;;37.40;27.63;;;15.10;99.90;;;;;;5032903;28;20502;-66
2023/06/18 00:42:20;;;;;;;37.80;27.80;;;15.10;99.90;;;;;;5032235;28;20069;-66
2023/06/18 00:44:47;;;;;;;37.03;27.80;;;15.10;99.90;;;;;;5032726;28;20049;-67
2023/06/18 00:47:13;;;;;;;33.75;27.65;;;15.10;99.90;;;;;;5029412;28;20048;-67
2023/06/18 00:49:43;;;;;;;39.67;29.38;;;15.10;99.90;;;;;;5052491;28;20048;-67
2023/06/18 00:52:12;;;;;;;40.75;29.40;;;15.00;99.90;;;;;;5052214;28;20055;-66
2023/06/18 00:54:40;;;;;;;39.53;29.08;;;15.00;99.90;;;;;;5051405;28;20043;-66
2023/06/18 00:57:13;;;;;;;41.58;28.90;;;15.00;99.90;;;;;;5052498;28;20044;-66
2023/06/18 00:59:42;;;;;;;39.22;28.08;;;15.00;99.90;;;;;;5034286;28;20041;-66
2023/06/18 01:02:09;;;;;;;37.83;28.55;;;15.10;99.90;;;;;;5053301;28;20512;-66
2023/06/18 01:04:36;;;;;;;35.63;27.20;;;15.10;99.90;;;;;;5053225;28;20391;-67
2023/06/18 01:07:02;;;;;;;36.50;27.70;;;15.10;99.90;;;;;;5050905;28;20128;-66
2023/06/18 01:09:30;;;;;;;38.00;27.48;;;15.10;99.90;;;;;;5052986;28;20118;-67
2023/06/18 01:11:57;;;;;;;37.60;28.17;;;15.00;99.90;;;;;;5052606;28;20120;-66
2023/06/18 01:14:28;;;;;;;37.88;28.50;;;15.00;99.90;;;;;;5051170;28;20490;-66
2023/06/18 01:16:59;;;;;;;37.75;27.60;;;15.10;99.90;;;;;;5037001;28;20041;-66
2023/06/18 01:19:46;;;;;;;36.28;26.70;;;15.00;99.90;;;;;;5031786;28;20425;-66
2023/06/18 01:22:26;;;;;;;38.65;28.85;;;15.00;99.90;;;;;;5031248;28;20041;-66
2023/06/18 01:24:58;;;;;;;34.45;26.05;;;15.00;99.90;;;;;;5033001;28;20053;-66
2023/06/18 01:27:27;;;;;;;38.15;29.38;;;15.00;99.90;;;;;;5034173;28;20103;-67
2023/06/18 01:29:56;;;;;;;38.22;28.63;;;15.00;99.90;;;;;;5034670;28;20080;-66
2023/06/18 01:32:22;;;;;;;37.97;28.05;;;15.00;99.90;;;;;;5034449;28;20080;-66
2023/06/18 01:34:47;;;;;;;35.13;27.80;;;15.00;99.90;;;;;;5051720;28;20084;-66
2023/06/18 01:37:50;;;;;;;39.35;28.30;;;15.00;99.90;;;;;;5052180;28;20064;-66
2023/06/18 01:40:26;;;;;;;35.67;28.15;;;15.00;99.90;;;;;;5034784;28;20060;-66
2023/06/18 01:43:04;;;;;;;35.38;26.58;;;14.90;99.90;;;;;;5051392;28;20090;-66
2023/06/18 01:45:40;;;;;;;37.40;27.80;;;14.90;99.90;;;;;;5052247;28;20045;-66
2023/06/18 01:48:07;;;;;;;37.17;30.65;;;14.90;99.90;;;;;;5018579;28;20052;-67
2023/06/18 01:50:35;;;;;;;38.33;28.30;;;14.80;99.90;;;;;;5016942;28;20049;-66
2023/06/18 01:53:04;;;;;;;39.75;29.98;;;14.80;99.90;;;;;;5052281;28;20037;-66
2023/06/18 01:55:33;;;;;;;34.13;26.13;;;14.80;99.90;;;;;;5034339;28;20087;-67
2023/06/18 01:57:59;;;;;;;40.40;28.52;;;14.80;99.90;;;;;;5033513;28;20481;-66
2023/06/18 02:00:26;;;;;;;36.05;27.45;;;14.80;99.90;;;;;;5034315;28;20045;-66
2023/06/18 02:02:51;;;;;;;31.65;23.85;;;14.80;99.90;;;;;;5051624;28;20041;-67
2023/06/18 02:05:18;;;;;;;35.88;28.30;;;14.80;99.90;;;;;;5052025;28;20405;-66
2023/06/18 02:07:44;;;;;;;36.08;27.60;;;14.70;99.90;;;;;;5040840;28;20032;-66
2023/06/18 02:10:10;;;;;;;38.08;29.25;;;14.70;99.90;;;;;;5071749;28;20169;-66
2023/06/18 02:12:36;;;;;;;38.95;29.27;;;14.70;99.90;;;;;;5071081;28;20048;-66
2023/06/18 02:15:02;;;;;;;40.85;30.08;;;14.70;99.90;;;;;;5054016;28;20045;-66
2023/06/18 02:17:28;;;;;;;47.28;32.60;;;14.70;99.90;;;;;;5053138;28;20040;-66
2023/06/18 02:19:57;;;;;;;38.08;28.55;;;14.60;99.90;;;;;;5071953;28;20044;-66
2023/06/18 02:22:26;;;;;;;34.45;25.20;;;14.70;99.90;;;;;;5071821;28;20044;-66
2023/06/18 02:24:52;;;;;;;42.58;31.92;;;14.60;99.90;;;;;;5052961;28;20119;-66
2023/06/18 02:27:18;;;;;;;39.97;28.63;;;14.60;99.90;;;;;;5041055;28;20052;-66
2023/06/18 02:29:45;;;;;;;39.50;28.60;;;14.60;99.90;;;;;;5033799;28;20041;-66
2023/06/18 02:32:11;;;;;;;40.13;29.63;;;14.60;99.90;;;;;;5017009;28;20478;-66
2023/06/18 02:34:37;;;;;;;38.90;29.02;;;14.60;99.90;;;;;;5051803;28;20044;-66
2023/06/18 02:37:03;;;;;;;35.83;27.27;;;14.50;99.90;;;;;;5034238;28;20037;-66
2023/06/18 02:39:29;;;;;;;32.97;25.50;;;14.50;99.90;;;;;;5033024;28;20080;-62
2023/06/18 02:41:55;;;;;;;30.77;24.17;;;14.40;99.90;;;;;;5034065;28;20479;-61
2023/06/18 02:44:20;;;;;;;29.23;22.35;;;14.40;99.90;;;;;;5017376;28;20044;-62
2023/06/18 02:46:46;;;;;;;28.38;21.80;;;14.30;99.90;;;;;;5050916;28;20033;-61
2023/06/18 02:49:12;;;;;;;31.50;23.33;;;14.20;99.90;;;;;;5051811;28;20528;-62
2023/06/18 02:51:37;;;;;;;33.92;24.58;;;14.20;99.90;;;;;;5051759;28;20496;-62
2023/06/18 02:54:04;;;;;;;34.67;25.65;;;14.10;99.90;;;;;;5032999;28;20041;-62
2023/06/18 02:56:30;;;;;;;32.83;25.10;;;14.10;99.90;;;;;;5033815;28;20402;-62
2023/06/18 02:58:56;;;;;;;32.05;23.52;;;14.10;99.90;;;;;;5032833;28;20041;-62
2023/06/18 03:01:23;;;;;;;32.42;23.38;;;14.00;99.90;;;;;;5017094;28;20040;-61
2023/06/18 03:03:49;;;;;;;36.17;24.52;;;14.00;99.90;;;;;;5051505;28;20115;-62
2023/06/18 03:06:15;;;;;;;39.63;27.35;;;13.90;99.90;;;;;;5050739;28;20099;-61
2023/06/18 03:08:41;;;;;;;32.67;24.67;;;13.90;99.90;;;;;;5051467;28;20041;-61
2023/06/18 03:11:07;;;;;;;32.33;23.17;;;13.90;99.90;;;;;;5033937;28;20045;-62
2023/06/18 03:13:33;;;;;;;32.45;23.90;;;13.90;99.90;;;;;;5050788;28;20106;-61
2023/06/18 03:15:59;;;;;;;35.10;24.58;;;13.90;99.90;;;;;;5016817;28;20043;-62
2023/06/18 03:18:24;;;;;;;31.10;23.65;;;13.80;99.90;;;;;;5050304;28;20048;-62
2023/06/18 03:20:50;;;;;;;32.28;25.25;;;13.80;99.90;;;;;;5032753;28;20041;-61
2023/06/18 03:23:16;;;;;;;34.97;26.15;;;13.80;99.90;;;;;;5052281;28;20041;-61
2023/06/18 03:25:41;;;;;;;36.60;25.98;;;13.80;99.90;;;;;;5036884;28;20044;-61
2023/06/18 03:28:07;;;;;;;38.53;28.33;;;13.80;99.90;;;;;;5040638;28;20051;-61
2023/06/18 03:30:33;;;;;;;40.35;28.10;;;13.70;99.90;;;;;;5074798;28;20546;-61
2023/06/18 03:33:02;;;;;;;42.10;27.73;;;13.70;99.90;;;;;;5074812;28;20472;-61
2023/06/18 03:35:28;;;;;;;43.70;28.63;;;13.70;99.90;;;;;;5056041;28;20444;-61
2023/06/18 03:37:54;;;;;;;39.00;27.15;;;13.70;99.90;;;;;;5056827;28;20119;-61
2023/06/18 03:40:20;;;;;;;47.17;28.30;;;13.70;99.90;;;;;;5056730;28;20476;-61
2023/06/18 03:42:46;;;;;;;56.63;26.77;;;13.70;99.90;;;;;;5041649;28;20044;-61
2023/06/18 03:45:12;;;;;;;37.08;23.55;;;13.70;99.90;;;;;;5037002;28;20072;-61
2023/06/18 03:47:38;;;;;;;50.40;25.45;;;13.70;99.90;;;;;;5037294;28;20084;-61
2023/06/18 03:50:04;;;;;;;57.88;25.88;;;13.60;99.90;;;;;;5036067;28;20496;-61
2023/06/18 03:52:29;;;;;;;47.85;26.48;;;13.60;99.90;;;;;;5054200;28;20114;-61
2023/06/18 03:54:56;;;;;;;35.30;24.67;;;13.60;99.90;;;;;;5054561;28;20036;-61
2023/06/18 03:57:21;;;;;;;32.20;23.00;;;13.60;99.90;;;;;;5035718;28;20086;-61
2023/06/18 03:59:51;;;;;;;34.20;23.40;;;13.70;99.90;;;;;;5036667;28;20040;-61
2023/06/18 04:02:17;;;;;;;40.53;24.83;;;13.70;99.90;;;;;;5035739;28;20087;-61
2023/06/18 04:04:44;;;;;;;32.30;23.67;;;13.70;99.90;;;;;;5054255;28;20123;-61
2023/06/18 04:07:10;;;;;;;29.55;20.05;;;13.80;99.90;;;;;;5054405;28;20041;-61
2023/06/18 04:09:36;;;;;;;33.33;24.38;;;13.80;99.90;;;;;;5035268;28;20040;-61
2023/06/18 04:12:02;;;;;;;32.97;23.40;;;13.90;99.90;;;;;;5053888;28;20048;-61
2023/06/18 04:14:27;;;;;;;34.20;23.02;;;13.90;99.90;;;;;;5054120;28;20041;-61
2023/06/18 04:16:53;;;;;;;28.98;20.55;;;14.00;99.90;;;;;;5018778;28;20037;-61
2023/06/18 04:19:19;;;;;;;31.45;22.67;;;14.00;99.90;;;;;;5054043;28;20040;-61
2023/06/18 04:21:44;;;;;;;32.05;21.98;;;14.00;99.90;;;;;;5035906;28;20063;-61
2023/06/18 04:24:10;;;;;;;34.20;21.50;;;14.00;99.90;;;;;;5035562;28;20048;-61
2023/06/18 04:26:35;;;;;;;35.47;21.13;;;14.00;99.90;;;;;;5036096;28;20071;-61
2023/06/18 04:29:01;;;;;;;35.78;21.20;;;14.00;99.90;;;;;;5038909;28;20049;-61
2023/06/18 04:31:27;;;;;;;30.35;20.30;;;14.00;99.90;;;;;;5035062;28;20055;-61
2023/06/18 04:33:53;;;;;;;29.02;19.02;;;14.00;99.90;;;;;;5053480;28;20118;-61
2023/06/18 04:36:24;;;;;;;31.88;20.20;;;14.00;99.90;;;;;;5052869;28;20036;-61
2023/06/18 04:38:50;;;;;;;39.13;22.50;;;13.90;99.90;;;;;;5052860;28;20036;-61
2023/06/18 04:41:15;;;;;;;31.02;20.45;;;13.90;99.90;;;;;;5053527;28;20048;-61
2023/06/18 04:43:41;;;;;;;29.73;22.17;;;13.80;99.90;;;;;;5035623;28;20041;-61
2023/06/18 04:46:07;;;;;;;33.97;21.58;;;13.80;99.90;;;;;;5035140;28;20047;-61
2023/06/18 04:48:34;;;;;;;27.45;21.75;;;13.80;99.90;;;;;;5053331;28;20071;-61
2023/06/18 04:51:00;;;;;;;38.60;23.05;;;13.80;99.90;;;;;;5053098;28;20387;-61
2023/06/18 04:53:26;;;;;;;29.40;21.40;;;13.80;99.90;;;;;;5034674;28;20078;-61
2023/06/18 04:55:51;;;;;;;26.77;21.27;;;13.80;99.90;;;;;;5035537;28;20115;-61
2023/06/18 04:58:19;;;;;;;30.00;20.73;;;13.80;99.90;;;;;;5035469;28;20086;-61
2023/06/18 05:00:46;;;;;;;33.65;22.58;;;13.80;99.90;;;;;;5052450;28;20055;-61
2023/06/18 05:03:12;;;;;;;29.90;20.63;;;13.90;99.90;;;;;;5035508;28;20087;-61
2023/06/18 05:05:37;;;;;;;34.17;21.08;;;14.00;99.90;;;;;;5034810;28;20445;-61
2023/06/18 05:08:04;;;;;;;29.80;21.90;;;14.00;99.90;;;;;;5053122;28;20473;-61
2023/06/18 05:10:29;;;;;;;28.38;21.08;;;14.10;99.90;;;;;;5053123;28;20037;-61
2023/06/18 05:12:55;;;;;;;30.98;21.23;;;14.10;99.90;;;;;;5034230;28;20386;-61
2023/06/18 05:15:21;;;;;;;28.92;20.95;;;14.20;99.90;;;;;;5052902;28;20040;-61
2023/06/18 05:17:46;;;;;;;31.88;21.95;;;14.20;99.90;;;;;;5018758;28;20072;-61
2023/06/18 05:20:12;;;;;;;31.48;21.95;;;14.20;99.90;;;;;;5052415;28;20522;-61
2023/06/18 05:22:39;;;;;;;29.05;20.75;;;14.20;99.90;;;;;;5035189;28;20076;-61
2023/06/18 05:25:06;;;;;;;29.15;21.48;;;14.30;99.90;;;;;;5053158;28;20060;-61
2023/06/18 05:27:31;;;;;;;34.58;21.25;;;14.30;99.90;;;;;;5051627;28;20051;-61
2023/06/18 05:30:01;;;;;;;27.70;21.77;;;14.40;99.90;;;;;;5034942;28;20124;-61
2023/06/18 05:32:27;;;;;;;30.95;23.85;;;14.40;99.90;;;;;;5034646;28;20045;-61
2023/06/18 05:34:55;;;;;;;32.15;23.02;;;14.50;99.90;;;;;;5033839;28;20052;-61
2023/06/18 05:37:21;;;;;;;30.60;24.30;;;14.70;99.90;;;;;;5052664;28;20119;-61
2023/06/18 05:39:47;;;;;;;30.30;22.48;;;14.80;99.90;;;;;;5034679;28;20040;-61
2023/06/18 05:42:12;;;;;;;28.80;22.33;;;15.00;99.90;;;;;;5051801;28;20044;-61
2023/06/18 05:44:38;;;;;;;31.67;22.15;;;15.10;99.90;;;;;;5034887;28;20033;-61
2023/06/18 05:47:04;;;;;;;30.88;22.10;;;15.20;99.90;;;;;;5051957;28;20087;-61
2023/06/18 05:49:35;;;;;;;31.80;23.67;;;15.30;99.90;;;;;;5034007;28;20069;-61
2023/06/18 05:52:00;;;;;;;27.83;22.20;;;15.50;99.90;;;;;;5034203;28;20474;-61
2023/06/18 05:54:26;;;;;;;28.70;22.73;;;15.60;99.90;;;;;;5034668;28;20048;-60
2023/06/18 05:56:52;;;;;;;31.02;23.38;;;15.70;99.90;;;;;;5051320;28;20551;-61
2023/06/18 05:59:17;;;;;;;28.70;22.60;;;15.70;99.90;;;;;;5034539;28;20083;-61
2023/06/18 06:01:43;;;;;;;28.25;22.50;;;15.90;99.90;;;;;;5017857;28;20496;-61
2023/06/18 06:04:09;;;;;;;28.77;23.00;;;16.00;99.90;;;;;;5051796;28;20040;-61
2023/06/18 06:06:36;;;;;;;28.35;23.05;;;16.10;99.90;;;;;;5034110;28;20040;-61
2023/06/18 06:09:02;;;;;;;27.50;22.25;;;16.30;99.90;;;;;;5054157;28;20025;-61
2023/06/18 06:11:27;;;;;;;30.40;22.80;;;16.40;99.90;;;;;;5053831;28;20533;-61
2023/06/18 06:13:53;;;;;;;27.42;21.25;;;16.60;99.90;;;;;;5054041;28;20044;-61
2023/06/18 06:16:19;;;;;;;27.48;21.83;;;16.60;99.90;;;;;;5036850;28;20051;-61
2023/06/18 06:18:45;;;;;;;24.95;21.23;;;16.80;99.90;;;;;;5072140;28;20119;-61
2023/06/18 06:21:10;;;;;;;27.23;23.00;;;16.90;99.90;;;;;;5072329;28;20059;-62
2023/06/18 06:23:36;;;;;;;24.67;21.15;;;16.90;99.90;;;;;;5045136;28;20040;-61
2023/06/18 06:26:02;;;;;;;26.85;21.95;;;16.90;99.90;;;;;;5061365;28;20126;-62
2023/06/18 06:28:28;;;;;;;28.55;23.42;;;17.00;99.90;;;;;;5035915;28;20127;-62
2023/06/18 06:30:54;;;;;;;28.98;22.25;;;17.00;99.90;;;;;;5031253;28;20470;-62
2023/06/18 06:33:20;;;;;;;25.70;21.83;;;17.00;99.90;;;;;;5030429;28;20050;-62
2023/06/18 06:35:46;;;;;;;28.58;23.30;;;17.00;99.90;;;;;;5031921;28;20040;-62
2023/06/18 06:38:12;;;;;;;29.42;22.75;;;17.00;99.90;;;;;;5036256;28;20041;-62
2023/06/18 06:40:38;;;;;;;26.67;21.88;;;17.00;99.90;;;;;;5040560;28;20430;-62
2023/06/18 06:43:05;;;;;;;27.65;21.55;;;17.10;99.90;;;;;;5031658;28;20120;-61
2023/06/18 06:45:31;;;;;;;28.85;22.33;;;17.20;99.90;;;;;;5036885;28;20041;-62
2023/06/18 06:48:01;;;;;;;28.63;23.98;;;17.30;99.90;;;;;;5043880;28;20049;-62
2023/06/18 06:50:27;;;;;;;26.98;22.52;;;17.40;99.90;;;;;;5046151;28;20045;-61
2023/06/18 06:52:52;;;;;;;25.55;21.02;;;17.60;99.90;;;;;;5048534;28;20064;-62
2023/06/18 06:55:18;;;;;;;24.77;20.58;;;17.70;99.90;;;;;;5049408;28;20103;-61
2023/06/18 06:57:44;;;;;;;28.75;23.08;;;17.80;99.90;;;;;;5049511;28;20393;-62
2023/06/18 07:00:10;;;;;;;29.30;22.55;;;17.80;99.90;;;;;;5051555;28;20048;-62
2023/06/18 07:02:36;;;;;;;30.77;25.50;;;17.90;99.90;;;;;;5033667;28;20132;-62
2023/06/18 07:05:02;;;;;;;28.13;21.35;;;17.80;99.90;;;;;;5051624;28;20123;-61
2023/06/18 07:07:28;;;;;;;28.42;22.92;;;18.00;99.90;;;;;;5036837;28;20045;-62
2023/06/18 07:09:54;;;;;;;28.70;24.60;;;18.10;99.90;;;;;;5035691;28;20045;-62
2023/06/18 07:12:19;;;;;;;27.30;23.83;;;18.10;99.90;;;;;;5048393;28;20715;-61
2023/06/18 07:14:45;;;;;;;26.90;22.13;;;18.30;99.90;;;;;;5052140;28;20254;-62
2023/06/18 07:17:11;;;;;;;27.27;22.75;;;18.40;99.90;;;;;;5053268;28;20428;-61
2023/06/18 07:19:36;;;;;;;27.50;21.80;;;18.50;99.90;;;;;;5032763;28;20124;-61
2023/06/18 07:22:02;;;;;;;27.13;22.67;;;18.60;99.90;;;;;;5048006;28;20041;-62
2023/06/18 07:24:29;;;;;;;28.83;22.65;;;18.70;99.90;;;;;;5039578;28;20056;-61
2023/06/18 07:26:55;;;;;;;28.77;22.10;;;18.80;99.90;;;;;;5070476;28;20064;-62
2023/06/18 07:29:24;;;;;;;25.60;21.00;;;19.00;99.90;;;;;;5045073;28;20080;-61
2023/06/18 07:31:49;;;;;;;25.17;21.73;;;19.20;99.90;;;;;;5044167;28;20128;-62
2023/06/18 07:34:16;;;;;;;27.10;21.17;;;19.30;99.90;;;;;;5031177;28;20144;-61
2023/06/18 07:36:42;;;;;;;23.50;20.33;;;19.40;99.90;;;;;;5049938;28;20413;-61
2023/06/18 07:39:08;;;;;;;23.10;18.25;;;19.40;99.90;;;;;;5051331;28;20040;-62
2023/06/18 07:41:34;;;;;;;23.20;19.33;;;19.60;99.90;;;;;;5041376;28;20424;-62
2023/06/18 07:44:00;;;;;;;28.05;21.33;;;19.70;99.90;;;;;;5047549;28;20045;-61
2023/06/18 07:46:26;;;;;;;24.30;20.27;;;19.90;99.90;;;;;;5030952;28;20454;-62
2023/06/18 07:48:51;;;;;;;28.00;20.67;;;20.00;99.90;;;;;;5036308;28;20102;-62
2023/06/18 07:51:17;;;;;;;23.70;18.60;;;20.10;99.90;;;;;;5016493;28;20572;-62
2023/06/18 07:53:43;;;;;;;27.05;21.17;;;20.10;99.90;;;;;;5050948;28;20056;-62
2023/06/18 07:56:09;;;;;;;26.05;21.00;;;20.10;99.90;;;;;;5049977;28;20112;-62
2023/06/18 07:58:35;;;;;;;25.10;20.30;;;20.20;99.90;;;;;;5019432;28;20534;-62
2023/06/18 08:01:00;;;;;;;23.30;20.02;;;20.30;99.90;;;;;;5046477;28;20037;-62
2023/06/18 08:03:26;;;;;;;25.40;19.20;;;20.40;99.90;;;;;;5032233;28;20034;-62
2023/06/18 08:05:52;;;;;;;21.55;18.83;;;20.60;99.90;;;;;;5069215;28;20899;-62
2023/06/18 08:08:18;;;;;;;24.42;18.55;;;20.80;99.90;;;;;;5062732;28;20041;-62
2023/06/18 08:10:43;;;;;;;22.58;19.80;;;21.00;99.90;;;;;;5048733;28;20055;-62
2023/06/18 08:13:09;;;;;;;21.17;16.70;;;21.10;99.90;;;;;;5051035;28;20049;-62
2023/06/18 08:15:35;;;;;;;21.30;18.77;;;21.20;99.90;;;;;;5046013;28;20041;-62
2023/06/18 08:18:01;;;;;;;22.38;17.73;;;21.20;99.90;;;;;;5030834;28;20509;-62
2023/06/18 08:20:26;;;;;;;22.95;19.63;;;21.20;99.90;;;;;;5046749;28;20758;-62
2023/06/18 08:22:52;;;;;;;18.77;15.98;;;21.20;99.90;;;;;;5042918;28;20045;-62
2023/06/18 08:25:18;;;;;;;22.13;18.30;;;21.20;99.90;;;;;;5040278;28;20083;-62
2023/06/18 08:27:44;;;;;;;20.35;16.48;;;21.30;99.90;;;;;;5045264;28;20080;-61
2023/06/18 08:30:10;;;;;;;18.48;15.70;;;21.30;99.90;;;;;;5063358;28;20502;-62
2023/06/18 08:32:38;;;;;;;19.55;17.35;;;21.40;99.90;;;;;;5048630;28;20044;-61
2023/06/18 08:35:05;;;;;;;23.33;17.05;;;21.50;99.90;;;;;;5061173;28;20075;-62
2023/06/18 08:37:31;;;;;;;19.92;16.50;;;21.60;99.90;;;;;;5044185;28;20051;-62
2023/06/18 08:39:57;;;;;;;20.50;17.20;;;21.70;99.90;;;;;;5053807;28;20417;-62
2023/06/18 08:42:22;;;;;;;19.27;15.50;;;21.80;99.90;;;;;;5040432;28;20131;-62
2023/06/18 08:44:50;;;;;;;22.75;16.80;;;21.90;99.90;;;;;;5052393;28;20109;-62
2023/06/18 08:47:17;;;;;;;21.85;16.05;;;22.10;99.90;;;;;;5068681;28;20041;-62
2023/06/18 08:49:45;;;;;;;17.45;14.48;;;22.20;99.90;;;;;;5071105;28;20041;-62
2023/06/18 08:52:12;;;;;;;19.38;14.45;;;22.20;99.90;;;;;;5070801;28;20052;-62
2023/06/18 08:54:38;;;;;;;16.80;14.10;;;22.30;99.90;;;;;;5054748;28;20049;-63
2023/06/18 08:57:28;;;;;;;16.35;13.95;;;22.50;99.90;;;;;;5051147;28;20037;-63
2023/06/18 08:59:54;;;;;;;18.10;14.52;;;22.60;99.90;;;;;;5061520;28;20397;-63
2023/06/18 09:02:24;;;;;;;16.05;12.20;;;22.70;99.90;;;;;;5051290;28;20045;-63
2023/06/18 09:04:51;;;;;;;17.10;12.82;;;22.90;99.90;;;;;;5032313;28;20087;-63
2023/06/18 09:07:18;;;;;;;17.02;11.73;;;23.00;99.90;;;;;;5040893;28;20393;-63
2023/06/18 09:09:45;;;;;;;15.70;12.00;;;23.20;99.90;;;;;;5040178;28;20040;-63
2023/06/18 09:12:11;;;;;;;14.95;12.30;;;23.30;99.90;;;;;;5069267;28;20043;-63
2023/06/18 09:14:36;;;;;;;15.73;12.43;;;23.40;99.90;;;;;;5073652;28;20369;-63
2023/06/18 09:17:02;;;;;;;20.35;12.02;;;23.50;99.90;;;;;;5072552;28;20028;-63
2023/06/18 09:19:28;;;;;;;15.55;11.43;;;23.60;99.90;;;;;;5067656;28;20043;-64
2023/06/18 09:21:53;;;;;;;15.55;12.35;;;23.80;99.90;;;;;;5066874;28;20470;-63
2023/06/18 09:24:21;;;;;;;15.00;12.00;;;23.90;99.90;;;;;;5053427;28;20044;-62
2023/06/18 09:26:50;;;;;;;13.63;11.43;;;24.00;99.90;;;;;;5044612;28;20040;-62
2023/06/18 09:29:16;;;;;;;13.80;10.18;;;24.10;99.90;;;;;;5051765;28;20515;-62
2023/06/18 09:31:47;;;;;;;12.73;10.30;;;24.10;99.90;;;;;;5042646;28;20045;-62
2023/06/18 09:34:19;;;;;;;15.73;11.52;;;24.20;99.90;;;;;;5034110;28;20049;-62
2023/06/18 09:36:50;;;;;;;12.38;11.05;;;24.30;99.90;;;;;;5018077;28;20048;-62
2023/06/18 09:39:21;;;;;;;15.05;11.38;;;24.30;99.90;;;;;;5034437;28;20044;-62
2023/06/18 09:41:49;;;;;;;12.90;11.02;;;24.40;99.90;;;;;;5033833;28;20494;-62
2023/06/18 09:44:15;;;;;;;13.25;11.63;;;24.50;99.90;;;;;;5052390;28;20162;-62
2023/06/18 09:46:46;;;;;;;12.27;10.63;;;24.60;99.90;;;;;;5034412;28;20489;-62
2023/06/18 09:49:18;;;;;;;13.00;10.25;;;24.80;99.90;;;;;;5052011;28;20072;-62
2023/06/18 09:51:44;;;;;;;17.05;10.68;;;24.90;99.90;;;;;;5052387;28;20077;-62
2023/06/18 09:54:10;;;;;;;11.63;9.27;;;24.90;99.90;;;;;;5017382;28;20536;-62
2023/06/18 09:56:38;;;;;;;11.43;9.00;;;25.00;99.90;;;;;;5034499;28;20044;-62
2023/06/18 09:59:04;;;;;;;13.00;8.30;;;25.20;99.90;;;;;;5052137;28;20045;-62
2023/06/18 10:01:44;;;;;;;10.48;8.73;;;25.30;99.90;;;;;;5033522;28;20044;-62
2023/06/18 10:04:11;;;;;;;11.27;9.63;;;25.30;99.90;;;;;;5052611;28;20040;-62
2023/06/18 10:06:39;;;;;;;11.23;9.25;;;25.30;99.90;;;;;;5052081;28;20049;-62
2023/06/18 10:09:07;;;;;;;13.10;8.75;;;25.30;99.90;;;;;;5033712;28;20636;-62
2023/06/18 10:11:35;;;;;;;10.32;8.15;;;25.30;99.60;;;;;;5050642;28;20506;-62
2023/06/18 10:14:05;;;;;;;10.38;9.00;;;25.10;98.50;;;;;;5052108;28;20041;-62
2023/06/18 10:16:33;;;;;;;11.60;10.23;;;25.10;99.30;;;;;;5051155;28;20394;-62
2023/06/18 10:19:17;;;;;;;12.35;9.40;;;25.00;99.60;;;;;;5017498;28;20041;-62
2023/06/18 10:21:49;;;;;;;;;;;25.00;99.90;;;;;;5034774;28;20460;-62
2023/06/18 10:24:45;;;;;;;12.23;9.07;;;25.00;99.90;;;;;;5033320;28;19923;-62
2023/06/18 10:27:12;;;;;;;10.45;8.27;;;25.10;99.50;;;;;;5034286;28;20044;-62
2023/06/18 10:29:38;;;;;;;11.63;8.40;;;25.20;99.90;;;;;;5051366;28;20424;-62
2023/06/18 10:32:05;;;;;;;11.32;8.45;;;25.30;99.80;;;;;;5051720;28;20045;-62
2023/06/18 10:34:32;;;;;;;10.43;8.90;;;25.40;98.90;;;;;;5055118;28;20504;-62
2023/06/18 10:36:59;;;;;;;9.45;8.38;;;25.40;98.80;;;;;;5037231;28;20037;-62
2023/06/18 10:39:26;;;;;;;11.05;7.72;;;25.50;98.40;;;;;;5056136;28;20044;-62
2023/06/18 10:41:52;;;;;;;9.25;8.25;;;25.50;98.00;;;;;;5038260;28;20393;-62
2023/06/18 10:44:33;;;;;;;11.10;8.65;;;25.50;97.60;;;;;;5055071;28;20468;-63
2023/06/18 10:47:19;;;;;;;11.57;8.80;;;25.50;97.10;;;;;;5037979;28;20099;-62
2023/06/18 10:50:03;;;;;;;13.27;9.07;;;25.50;97.70;;;;;;5038100;28;20428;-62
2023/06/18 10:52:30;;;;;;;10.55;8.35;;;25.60;97.60;;;;;;5054915;28;20047;-62
2023/06/18 10:55:10;;;;;;;12.43;8.63;;;25.70;97.30;;;;;;5037754;28;20049;-62
2023/06/18 10:57:41;;;;;;;9.88;8.18;;;25.80;96.10;;;;;;5037217;28;20127;-62
2023/06/18 11:00:24;;;;;;;9.77;7.97;;;25.80;96.50;;;;;;5055848;28;20064;-62
2023/06/18 11:03:01;;;;;;;12.93;8.35;;;25.90;96.30;;;;;;5037596;28;20072;-62
2023/06/18 11:05:33;;;;;;;10.85;8.63;;;26.00;96.30;;;;;;5037040;28;20041;-62
2023/06/18 11:08:04;;;;;;;9.93;8.23;;;26.10;96.10;;;;;;5037503;28;20041;-62
2023/06/18 11:10:38;;;;;;;9.75;8.15;;;26.10;95.90;;;;;;5055448;28;20041;-62
2023/06/18 11:13:04;;;;;;;;;;;26.10;94.90;;;;;;5037008;28;20509;-62
2023/06/18 11:15:31;;;;;;;10.50;8.35;;;26.10;94.90;;;;;;5055190;28;20003;-62
2023/06/18 11:18:01;;;;;;;12.35;8.75;;;26.10;95.20;;;;;;5055211;28;20037;-62
2023/06/18 11:20:31;;;;;;;9.38;7.53;;;26.20;95.40;;;;;;5036235;28;20051;-62
2023/06/18 11:23:00;;;;;;;11.57;7.93;;;26.20;95.00;;;;;;5037409;28;20087;-62
2023/06/18 11:25:27;;;;;;;10.27;7.57;;;26.40;94.40;;;;;;5036362;28;20052;-62
2023/06/18 11:27:55;;;;;;;9.95;7.63;;;26.70;93.80;;;;;;5054954;28;20114;-63
2023/06/18 11:30:21;;;;;;;9.65;7.28;;;26.80;93.20;;;;;;5037094;28;20084;-62
2023/06/18 11:32:47;;;;;;;8.73;7.82;;;26.90;92.90;;;;;;5054017;28;20037;-62
2023/06/18 11:35:13;;;;;;;10.52;7.82;;;27.00;92.40;;;;;;5020446;28;20120;-62
2023/06/18 11:37:45;;;;;;;11.88;8.10;;;27.00;91.90;;;;;;5037239;28;20041;-62
2023/06/18 11:40:11;;;;;;;9.98;6.97;;;27.00;92.20;;;;;;5036500;28;20037;-62
2023/06/18 11:42:57;;;;;;;10.55;7.70;;;27.00;91.80;;;;;;5054665;28;20044;-62
2023/06/18 11:45:23;;;;;;;8.68;7.13;;;27.10;90.80;;;;;;5036553;28;20548;-62
2023/06/18 11:47:50;;;;;;;10.15;7.28;;;27.10;89.80;;;;;;5054132;28;20045;-62
2023/06/18 11:50:21;;;;;;;10.85;7.10;;;27.10;87.40;;;;;;5054634;28;20072;-62
2023/06/18 11:52:47;;;;;;;9.63;7.03;;;27.00;86.80;;;;;;5054651;28;20037;-62
2023/06/18 11:55:13;;;;;;;9.40;7.57;;;27.00;86.60;;;;;;5053787;28;20044;-62
2023/06/18 11:57:40;;;;;;;9.77;7.30;;;27.00;87.00;;;;;;5036671;28;20045;-62
2023/06/18 12:00:08;;;;;;;10.32;7.80;;;27.10;85.70;;;;;;5036839;28;20444;-62
2023/06/18 12:02:38;;;;;;;11.35;8.02;;;27.10;85.50;;;;;;5035904;28;20041;-62
2023/06/18 12:05:05;;;;;;;9.77;7.80;;;27.20;84.50;;;;;;5054411;28;20040;-62
2023/06/18 12:07:31;;;;;;;9.82;7.75;;;27.30;83.70;;;;;;5053882;28;20079;-62
2023/06/18 12:09:58;;;;;;;11.50;8.38;;;27.50;83.40;;;;;;5054291;28;20036;-62
2023/06/18 12:12:34;;;;;;;8.75;6.63;;;27.60;82.00;;;;;;5036182;28;20106;-62
2023/06/18 12:15:06;;;;;;;8.32;6.75;;;27.80;81.00;;;;;;5035547;28;20049;-62
2023/06/18 12:17:40;;;;;;;9.55;7.10;;;28.00;81.30;;;;;;5036216;28;20033;-62
2023/06/18 12:20:13;;;;;;;10.45;8.07;;;28.20;79.10;;;;;;5036529;28;20048;-62
2023/06/18 12:22:40;;;;;;;8.40;7.53;;;28.30;77.50;;;;;;5035588;28;20098;-62
2023/06/18 12:25:08;;;;;;;9.07;7.63;;;28.40;76.90;;;;;;5054144;28;20052;-63
2023/06/18 12:27:37;;;;;;;8.95;7.88;;;28.50;77.20;;;;;;5036127;28;20409;-62
2023/06/18 12:30:08;;;;;;;10.50;7.57;;;28.50;76.40;;;;;;5035414;28;20083;-62
2023/06/18 12:32:36;;;;;;;8.45;6.97;;;28.40;75.70;;;;;;5035938;28;20048;-62